Carnival Victory — 3FFL8 — position and weather

sailwx.info

Track history (hours):
 
Tides and Currents Weather Stations Pressure Air Temp Water Temp Dewpoint Dewpoint Depression Visibility Wind Speed Wind Dir Waves Ship Positions

Carnival Victory

Operator: Carnival Cruise Lines

Last reported at 2016-Jun-24 03:32 UTC. Time now 2016-Jun-25 21:25 UTC.
Position N 27°08' W 079°33'.

Type: Ship. MMSI: 355263000.

Date/timePositionNaut miles runAvg speedWind from/ knotsBaromVisibWave heightAir tempDewpointWater temp
2016-Jun-24 03:32N 27°08' W 079°33'  
2016-Jun-19 03:33N 27°22' W 079°26'3415.8
2016-Jun-19 01:25N 26°48' W 079°21'1815.8
2016-Jun-19 00:15N 26°31' W 079°13'912.6
2016-Jun-18 23:33N 26°23' W 079°11'13410.7
2016-Jun-18 11:00N 25°18' W 077°00'148 5.0 110 / 141015.310.8 1.028.023.929.6
2016-Jun-17 05:32N 26°43' W 079°15'1615.9
2016-Jun-17 04:33N 26°56' W 079°24'1614.9
2016-Jun-17 03:29N 27°09' W 079°34'11 0.4
2016-Jun-16 02:22N 27°03' W 079°25'2815.3
2016-Jun-16 00:33N 26°35' W 079°21'136 5.6
2016-Jun-15 00:10N 25°22' W 077°13'13 6.9
2016-Jun-14 22:20N 25°13' W 077°23'7 8.3
2016-Jun-14 21:33N 25°07' W 077°22'2 0.4
2016-Jun-14 15:25N 25°05' W 077°21'0 0.0
2016-Jun-14 12:13N 25°05' W 077°21'2 2.2
2016-Jun-14 11:11N 25°07' W 077°22'711.3
2016-Jun-14 10:32N 25°14' W 077°24'13 9.5
2016-Jun-14 09:10N 25°26' W 077°18'  
Track history (hours):
 
Tides and Currents Weather Stations Pressure Air Temp Water Temp Dewpoint Dewpoint Depression Visibility Wind Speed Wind Dir Waves Ship Positions

Carnival Victory

Operator: Carnival Cruise Lines

Last reported at 2016-Jun-24 03:32 UTC. Time now 2016-Jun-25 21:25 UTC.
Position N 27°08' W 079°33'.

Type: Ship. MMSI: 355263000.

Date/timePositionNaut miles runAvg speedWind from/ knotsBaromVisibWave heightAir tempDewpointWater temp
2016-Jun-24 03:32N 27°08' W 079°33'  
2016-Jun-19 03:33N 27°22' W 079°26'3415.8
2016-Jun-19 01:25N 26°48' W 079°21'1815.8
2016-Jun-19 00:15N 26°31' W 079°13'912.6
2016-Jun-18 23:33N 26°23' W 079°11'13410.7
2016-Jun-18 11:00N 25°18' W 077°00'148 5.0 110 / 141015.310.8 1.028.023.929.6
2016-Jun-17 05:32N 26°43' W 079°15'1615.9
2016-Jun-17 04:33N 26°56' W 079°24'1614.9
2016-Jun-17 03:29N 27°09' W 079°34'11 0.4
2016-Jun-16 02:22N 27°03' W 079°25'2815.3
2016-Jun-16 00:33N 26°35' W 079°21'136 5.6
2016-Jun-15 00:10N 25°22' W 077°13'13 6.9
2016-Jun-14 22:20N 25°13' W 077°23'7 8.3
2016-Jun-14 21:33N 25°07' W 077°22'2 0.4
2016-Jun-14 15:25N 25°05' W 077°21'0 0.0
2016-Jun-14 12:13N 25°05' W 077°21'2 2.2
2016-Jun-14 11:11N 25°07' W 077°22'711.3
2016-Jun-14 10:32N 25°14' W 077°24'13 9.5
2016-Jun-14 09:10N 25°26' W 077°18'  

Dump ship's entire track history